sensor_id;sensor_type;location;lat;lon;timestamp;temperature;humidity
21417;DHT22;10869;52.238;10.716;2024-02-21T00:00:10;6.90;99.90
21417;DHT22;10869;52.238;10.716;2024-02-21T00:02:37;6.90;99.90
21417;DHT22;10869;52.238;10.716;2024-02-21T00:05:03;6.90;99.90
21417;DHT22;10869;52.238;10.716;2024-02-21T00:07:29;6.90;99.90
21417;DHT22;10869;52.238;10.716;2024-02-21T00:09:54;6.90;99.90
21417;DHT22;10869;52.238;10.716;2024-02-21T00:12:20;6.90;99.90
21417;DHT22;10869;52.238;10.716;2024-02-21T00:14:46;6.80;99.90
21417;DHT22;10869;52.238;10.716;2024-02-21T00:17:11;6.90;99.90
21417;DHT22;10869;52.238;10.716;2024-02-21T00:19:37;6.90;99.90
21417;DHT22;10869;52.238;10.716;2024-02-21T00:22:04;6.80;99.90
21417;DHT22;10869;52.238;10.716;2024-02-21T00:24:30;6.90;99.90
21417;DHT22;10869;52.238;10.716;2024-02-21T00:26:55;6.90;99.90
21417;DHT22;10869;52.238;10.716;2024-02-21T00:29:21;6.90;99.90
21417;DHT22;10869;52.238;10.716;2024-02-21T00:31:49;6.90;99.90
21417;DHT22;10869;52.238;10.716;2024-02-21T00:34:14;6.90;99.90
21417;DHT22;10869;52.238;10.716;2024-02-21T00:36:40;6.90;99.90
21417;DHT22;10869;52.238;10.716;2024-02-21T00:39:06;6.90;99.90
21417;DHT22;10869;52.238;10.716;2024-02-21T00:41:32;6.90;99.90
21417;DHT22;10869;52.238;10.716;2024-02-21T00:43:58;6.90;99.90
21417;DHT22;10869;52.238;10.716;2024-02-21T00:46:24;6.90;99.90
21417;DHT22;10869;52.238;10.716;2024-02-21T00:48:49;6.90;99.90
21417;DHT22;10869;52.238;10.716;2024-02-21T00:51:16;7.00;99.90
21417;DHT22;10869;52.238;10.716;2024-02-21T00:54:03;7.00;99.90
21417;DHT22;10869;52.238;10.716;2024-02-21T00:56:39;7.00;99.90
21417;DHT22;10869;52.238;10.716;2024-02-21T00:59:04;7.00;99.90
21417;DHT22;10869;52.238;10.716;2024-02-21T01:01:30;7.00;99.90
21417;DHT22;10869;52.238;10.716;2024-02-21T01:04:06;7.00;99.90
21417;DHT22;10869;52.238;10.716;2024-02-21T01:06:33;7.00;99.90
21417;DHT22;10869;52.238;10.716;2024-02-21T01:08:59;7.00;99.90
21417;DHT22;10869;52.238;10.716;2024-02-21T01:14:19;7.00;99.90
21417;DHT22;10869;52.238;10.716;2024-02-21T01:16:45;7.00;99.90
21417;DHT22;10869;52.238;10.716;2024-02-21T01:19:13;7.10;99.90
21417;DHT22;10869;52.238;10.716;2024-02-21T01:21:39;7.10;99.90
21417;DHT22;10869;52.238;10.716;2024-02-21T01:24:10;7.10;99.90
21417;DHT22;10869;52.238;10.716;2024-02-21T01:26:40;7.10;99.90
21417;DHT22;10869;52.238;10.716;2024-02-21T01:29:33;7.10;99.90
21417;DHT22;10869;52.238;10.716;2024-02-21T01:32:02;7.10;99.90
21417;DHT22;10869;52.238;10.716;2024-02-21T01:34:28;7.10;99.90
21417;DHT22;10869;52.238;10.716;2024-02-21T01:43:47;7.10;99.90
21417;DHT22;10869;52.238;10.716;2024-02-21T01:46:12;7.10;99.90
21417;DHT22;10869;52.238;10.716;2024-02-21T01:48:38;7.10;99.90
21417;DHT22;10869;52.238;10.716;2024-02-21T01:54:08;7.20;99.90
21417;DHT22;10869;52.238;10.716;2024-02-21T01:56:35;7.20;99.90
21417;DHT22;10869;52.238;10.716;2024-02-21T01:59:17;7.20;99.90
21417;DHT22;10869;52.238;10.716;2024-02-21T02:01:44;7.20;99.90
21417;DHT22;10869;52.238;10.716;2024-02-21T02:04:16;7.30;99.90
21417;DHT22;10869;52.238;10.716;2024-02-21T02:13:33;7.30;99.90
21417;DHT22;10869;52.238;10.716;2024-02-21T02:15:58;7.30;99.90
21417;DHT22;10869;52.238;10.716;2024-02-21T02:18:24;7.30;99.90
21417;DHT22;10869;52.238;10.716;2024-02-21T02:20:54;7.30;99.90
21417;DHT22;10869;52.238;10.716;2024-02-21T02:23:42;7.30;99.90
21417;DHT22;10869;52.238;10.716;2024-02-21T02:26:08;7.30;99.90
21417;DHT22;10869;52.238;10.716;2024-02-21T02:31:46;7.40;99.90
21417;DHT22;10869;52.238;10.716;2024-02-21T02:34:12;7.40;99.90
21417;DHT22;10869;52.238;10.716;2024-02-21T02:36:38;7.30;99.90
21417;DHT22;10869;52.238;10.716;2024-02-21T02:39:26;7.40;99.90
21417;DHT22;10869;52.238;10.716;2024-02-21T02:41:51;7.30;99.90
21417;DHT22;10869;52.238;10.716;2024-02-21T02:44:17;7.30;99.90
21417;DHT22;10869;52.238;10.716;2024-02-21T02:46:43;7.40;99.90
21417;DHT22;10869;52.238;10.716;2024-02-21T02:49:09;7.40;99.90
21417;DHT22;10869;52.238;10.716;2024-02-21T02:51:35;7.40;99.90
21417;DHT22;10869;52.238;10.716;2024-02-21T02:54:03;7.40;99.90
21417;DHT22;10869;52.238;10.716;2024-02-21T02:56:40;7.40;99.90
21417;DHT22;10869;52.238;10.716;2024-02-21T02:59:05;7.40;99.90
21417;DHT22;10869;52.238;10.716;2024-02-21T03:01:34;7.40;99.90
21417;DHT22;10869;52.238;10.716;2024-02-21T03:04:01;7.40;99.90
21417;DHT22;10869;52.238;10.716;2024-02-21T03:06:27;7.40;99.90
21417;DHT22;10869;52.238;10.716;2024-02-21T03:08:52;7.40;99.90
21417;DHT22;10869;52.238;10.716;2024-02-21T03:11:20;7.40;99.90
21417;DHT22;10869;52.238;10.716;2024-02-21T03:13:46;7.40;99.90
21417;DHT22;10869;52.238;10.716;2024-02-21T03:16:12;7.40;99.90
21417;DHT22;10869;52.238;10.716;2024-02-21T03:18:38;7.40;99.90
21417;DHT22;10869;52.238;10.716;2024-02-21T03:21:04;7.40;99.90
21417;DHT22;10869;52.238;10.716;2024-02-21T03:23:30;7.40;99.90
21417;DHT22;10869;52.238;10.716;2024-02-21T03:25:56;7.40;99.90
21417;DHT22;10869;52.238;10.716;2024-02-21T03:28:22;7.40;99.90
21417;DHT22;10869;52.238;10.716;2024-02-21T03:30:48;7.40;99.90
21417;DHT22;10869;52.238;10.716;2024-02-21T03:33:13;7.40;99.90
21417;DHT22;10869;52.238;10.716;2024-02-21T03:35:39;7.40;99.90
21417;DHT22;10869;52.238;10.716;2024-02-21T03:38:05;7.40;99.90
21417;DHT22;10869;52.238;10.716;2024-02-21T03:40:30;7.40;99.90
21417;DHT22;10869;52.238;10.716;2024-02-21T03:42:56;7.40;99.90
21417;DHT22;10869;52.238;10.716;2024-02-21T03:45:22;7.40;99.90
21417;DHT22;10869;52.238;10.716;2024-02-21T03:47:48;7.40;99.90
21417;DHT22;10869;52.238;10.716;2024-02-21T03:50:14;7.40;99.90
21417;DHT22;10869;52.238;10.716;2024-02-21T03:52:39;7.40;99.90
21417;DHT22;10869;52.238;10.716;2024-02-21T03:55:06;7.40;99.90
21417;DHT22;10869;52.238;10.716;2024-02-21T03:57:33;7.40;99.90
21417;DHT22;10869;52.238;10.716;2024-02-21T03:59:58;7.40;99.90
21417;DHT22;10869;52.238;10.716;2024-02-21T04:02:24;7.40;99.90
21417;DHT22;10869;52.238;10.716;2024-02-21T04:04:50;7.40;99.90
21417;DHT22;10869;52.238;10.716;2024-02-21T04:07:17;7.40;99.90
21417;DHT22;10869;52.238;10.716;2024-02-21T04:09:45;7.40;99.90
21417;DHT22;10869;52.238;10.716;2024-02-21T04:12:10;7.40;99.90
21417;DHT22;10869;52.238;10.716;2024-02-21T04:14:36;7.40;99.90
21417;DHT22;10869;52.238;10.716;2024-02-21T04:17:05;7.40;99.90
21417;DHT22;10869;52.238;10.716;2024-02-21T04:19:35;7.40;99.90
21417;DHT22;10869;52.238;10.716;2024-02-21T04:22:01;7.30;99.90
21417;DHT22;10869;52.238;10.716;2024-02-21T04:24:27;7.30;99.90
21417;DHT22;10869;52.238;10.716;2024-02-21T04:30:16;7.30;99.90
21417;DHT22;10869;52.238;10.716;2024-02-21T04:32:44;7.30;99.90
21417;DHT22;10869;52.238;10.716;2024-02-21T04:35:10;7.30;99.90
21417;DHT22;10869;52.238;10.716;2024-02-21T04:37:36;7.30;99.90
21417;DHT22;10869;52.238;10.716;2024-02-21T04:40:02;7.30;99.90
21417;DHT22;10869;52.238;10.716;2024-02-21T04:42:28;7.30;99.90
21417;DHT22;10869;52.238;10.716;2024-02-21T04:44:56;7.30;99.90
21417;DHT22;10869;52.238;10.716;2024-02-21T04:47:22;7.30;99.90
21417;DHT22;10869;52.238;10.716;2024-02-21T04:49:53;7.30;99.90
21417;DHT22;10869;52.238;10.716;2024-02-21T04:52:19;7.40;99.90
21417;DHT22;10869;52.238;10.716;2024-02-21T04:54:45;7.30;99.90
21417;DHT22;10869;52.238;10.716;2024-02-21T04:57:11;7.30;99.90
21417;DHT22;10869;52.238;10.716;2024-02-21T04:59:36;7.40;99.90
21417;DHT22;10869;52.238;10.716;2024-02-21T05:02:03;7.40;99.90
21417;DHT22;10869;52.238;10.716;2024-02-21T05:04:29;7.30;99.90
21417;DHT22;10869;52.238;10.716;2024-02-21T05:06:54;7.30;99.90
21417;DHT22;10869;52.238;10.716;2024-02-21T05:09:20;7.30;99.90
21417;DHT22;10869;52.238;10.716;2024-02-21T05:11:46;7.30;99.90
21417;DHT22;10869;52.238;10.716;2024-02-21T05:14:13;7.30;99.90
21417;DHT22;10869;52.238;10.716;2024-02-21T05:16:41;7.30;99.90
21417;DHT22;10869;52.238;10.716;2024-02-21T05:19:07;7.30;99.90
21417;DHT22;10869;52.238;10.716;2024-02-21T05:21:35;7.30;99.90
21417;DHT22;10869;52.238;10.716;2024-02-21T05:24:01;7.30;99.90
21417;DHT22;10869;52.238;10.716;2024-02-21T05:26:28;7.40;99.90
21417;DHT22;10869;52.238;10.716;2024-02-21T05:28:56;7.30;99.90
21417;DHT22;10869;52.238;10.716;2024-02-21T05:31:24;7.30;99.90
21417;DHT22;10869;52.238;10.716;2024-02-21T05:33:50;7.30;99.90
21417;DHT22;10869;52.238;10.716;2024-02-21T05:36:17;7.30;99.90
21417;DHT22;10869;52.238;10.716;2024-02-21T05:38:42;7.30;99.90
21417;DHT22;10869;52.238;10.716;2024-02-21T05:41:08;7.40;99.90
21417;DHT22;10869;52.238;10.716;2024-02-21T05:43:34;7.30;99.90
21417;DHT22;10869;52.238;10.716;2024-02-21T05:46:00;7.30;99.90
21417;DHT22;10869;52.238;10.716;2024-02-21T05:48:29;7.40;99.90
21417;DHT22;10869;52.238;10.716;2024-02-21T05:50:58;7.40;99.90
21417;DHT22;10869;52.238;10.716;2024-02-21T05:53:26;7.40;99.90
21417;DHT22;10869;52.238;10.716;2024-02-21T05:55:52;7.40;99.90
21417;DHT22;10869;52.238;10.716;2024-02-21T05:58:18;7.40;99.90
21417;DHT22;10869;52.238;10.716;2024-02-21T06:00:43;7.40;99.90
21417;DHT22;10869;52.238;10.716;2024-02-21T06:03:11;7.40;99.90
21417;DHT22;10869;52.238;10.716;2024-02-21T06:05:37;7.40;99.90
21417;DHT22;10869;52.238;10.716;2024-02-21T06:08:04;7.40;99.90
21417;DHT22;10869;52.238;10.716;2024-02-21T06:10:30;7.40;99.90
21417;DHT22;10869;52.238;10.716;2024-02-21T06:12:55;7.40;99.90
21417;DHT22;10869;52.238;10.716;2024-02-21T06:15:21;7.40;99.90
21417;DHT22;10869;52.238;10.716;2024-02-21T06:17:47;7.50;99.90
21417;DHT22;10869;52.238;10.716;2024-02-21T06:20:13;7.50;99.90
21417;DHT22;10869;52.238;10.716;2024-02-21T06:22:38;7.50;99.90
21417;DHT22;10869;52.238;10.716;2024-02-21T06:25:04;7.50;99.90
21417;DHT22;10869;52.238;10.716;2024-02-21T06:27:54;7.50;99.90
21417;DHT22;10869;52.238;10.716;2024-02-21T06:30:43;7.50;99.90
21417;DHT22;10869;52.238;10.716;2024-02-21T06:33:12;7.50;99.90
21417;DHT22;10869;52.238;10.716;2024-02-21T06:35:37;7.50;99.90
21417;DHT22;10869;52.238;10.716;2024-02-21T06:44:56;7.50;99.90
21417;DHT22;10869;52.238;10.716;2024-02-21T06:47:22;7.50;99.90
21417;DHT22;10869;52.238;10.716;2024-02-21T06:53:10;7.50;99.90
21417;DHT22;10869;52.238;10.716;2024-02-21T06:58:58;7.50;99.90
21417;DHT22;10869;52.238;10.716;2024-02-21T07:01:24;7.50;99.90
21417;DHT22;10869;52.238;10.716;2024-02-21T07:07:12;7.60;99.90
21417;DHT22;10869;52.238;10.716;2024-02-21T07:09:38;7.60;99.90
21417;DHT22;10869;52.238;10.716;2024-02-21T07:12:04;7.60;99.90
21417;DHT22;10869;52.238;10.716;2024-02-21T07:17:52;7.60;99.90
21417;DHT22;10869;52.238;10.716;2024-02-21T07:20:18;7.60;99.90
21417;DHT22;10869;52.238;10.716;2024-02-21T07:22:44;7.60;99.90
21417;DHT22;10869;52.238;10.716;2024-02-21T07:28:31;7.60;99.90
21417;DHT22;10869;52.238;10.716;2024-02-21T07:30:59;7.70;99.90
21417;DHT22;10869;52.238;10.716;2024-02-21T07:33:25;7.70;99.90
21417;DHT22;10869;52.238;10.716;2024-02-21T07:35:51;7.70;99.90
21417;DHT22;10869;52.238;10.716;2024-02-21T07:38:16;7.70;99.90
21417;DHT22;10869;52.238;10.716;2024-02-21T07:40:46;7.70;99.90
21417;DHT22;10869;52.238;10.716;2024-02-21T07:46:34;7.70;99.90
21417;DHT22;10869;52.238;10.716;2024-02-21T07:49:00;7.80;99.90
21417;DHT22;10869;52.238;10.716;2024-02-21T07:51:28;7.80;99.90
21417;DHT22;10869;52.238;10.716;2024-02-21T07:53:53;7.80;99.90
21417;DHT22;10869;52.238;10.716;2024-02-21T07:56:23;7.80;99.90
21417;DHT22;10869;52.238;10.716;2024-02-21T08:05:04;7.80;99.90
21417;DHT22;10869;52.238;10.716;2024-02-21T08:11:02;7.90;99.90
21417;DHT22;10869;52.238;10.716;2024-02-21T08:13:31;8.00;99.90
21417;DHT22;10869;52.238;10.716;2024-02-21T08:15:57;8.00;99.90
21417;DHT22;10869;52.238;10.716;2024-02-21T08:18:28;8.10;99.90
21417;DHT22;10869;52.238;10.716;2024-02-21T08:20:54;8.10;99.90
21417;DHT22;10869;52.238;10.716;2024-02-21T08:23:22;8.20;99.90
21417;DHT22;10869;52.238;10.716;2024-02-21T08:25:48;8.30;99.90
21417;DHT22;10869;52.238;10.716;2024-02-21T08:28:15;8.30;99.90
21417;DHT22;10869;52.238;10.716;2024-02-21T08:30:40;8.40;99.90
21417;DHT22;10869;52.238;10.716;2024-02-21T08:33:14;8.40;99.90
21417;DHT22;10869;52.238;10.716;2024-02-21T08:35:40;8.40;99.90
21417;DHT22;10869;52.238;10.716;2024-02-21T08:38:06;8.50;99.90
21417;DHT22;10869;52.238;10.716;2024-02-21T08:40:31;8.50;99.90
21417;DHT22;10869;52.238;10.716;2024-02-21T08:43:00;8.60;99.90
21417;DHT22;10869;52.238;10.716;2024-02-21T08:45:26;8.60;99.90
21417;DHT22;10869;52.238;10.716;2024-02-21T08:47:53;8.60;99.90
21417;DHT22;10869;52.238;10.716;2024-02-21T08:50:19;8.60;99.90
21417;DHT22;10869;52.238;10.716;2024-02-21T08:52:45;8.60;99.90
21417;DHT22;10869;52.238;10.716;2024-02-21T08:58:32;8.60;99.90
21417;DHT22;10869;52.238;10.716;2024-02-21T09:00:58;8.70;99.90
21417;DHT22;10869;52.238;10.716;2024-02-21T09:03:24;8.70;99.90
21417;DHT22;10869;52.238;10.716;2024-02-21T09:05:50;8.70;99.90
21417;DHT22;10869;52.238;10.716;2024-02-21T09:08:16;8.70;99.90
21417;DHT22;10869;52.238;10.716;2024-02-21T09:10:42;8.70;99.90
21417;DHT22;10869;52.238;10.716;2024-02-21T09:13:08;8.70;99.90
21417;DHT22;10869;52.238;10.716;2024-02-21T09:15:34;8.80;99.90
21417;DHT22;10869;52.238;10.716;2024-02-21T09:18:00;8.80;99.90
21417;DHT22;10869;52.238;10.716;2024-02-21T09:23:48;8.80;99.90
21417;DHT22;10869;52.238;10.716;2024-02-21T09:29:35;9.00;99.90
21417;DHT22;10869;52.238;10.716;2024-02-21T09:32:02;9.00;99.90
21417;DHT22;10869;52.238;10.716;2024-02-21T09:34:28;9.10;99.90
21417;DHT22;10869;52.238;10.716;2024-02-21T09:40:16;9.20;99.90
21417;DHT22;10869;52.238;10.716;2024-02-21T09:46:05;9.20;99.90
21417;DHT22;10869;52.238;10.716;2024-02-21T09:55:07;9.30;99.90
21417;DHT22;10869;52.238;10.716;2024-02-21T09:57:37;9.40;99.90
21417;DHT22;10869;52.238;10.716;2024-02-21T10:00:05;9.50;99.90
21417;DHT22;10869;52.238;10.716;2024-02-21T10:02:39;9.60;99.90
21417;DHT22;10869;52.238;10.716;2024-02-21T10:05:18;9.70;99.90
21417;DHT22;10869;52.238;10.716;2024-02-21T10:16:17;9.90;99.90
21417;DHT22;10869;52.238;10.716;2024-02-21T10:18:56;9.90;99.90
21417;DHT22;10869;52.238;10.716;2024-02-21T10:26:38;10.30;99.90
21417;DHT22;10869;52.238;10.716;2024-02-21T10:29:05;10.30;99.90
21417;DHT22;10869;52.238;10.716;2024-02-21T10:31:31;10.40;99.90
21417;DHT22;10869;52.238;10.716;2024-02-21T10:34:02;10.50;99.90
21417;DHT22;10869;52.238;10.716;2024-02-21T10:39:42;10.30;99.90
21417;DHT22;10869;52.238;10.716;2024-02-21T10:47:40;9.90;99.90
21417;DHT22;10869;52.238;10.716;2024-02-21T10:50:10;9.70;99.90
21417;DHT22;10869;52.238;10.716;2024-02-21T11:04:06;9.60;99.90
21417;DHT22;10869;52.238;10.716;2024-02-21T11:06:41;9.70;99.90
21417;DHT22;10869;52.238;10.716;2024-02-21T11:09:11;9.70;99.90
21417;DHT22;10869;52.238;10.716;2024-02-21T11:11:43;9.70;99.90
21417;DHT22;10869;52.238;10.716;2024-02-21T11:14:19;9.80;99.90
21417;DHT22;10869;52.238;10.716;2024-02-21T11:16:52;9.80;99.90
21417;DHT22;10869;52.238;10.716;2024-02-21T11:19:22;9.80;99.90
21417;DHT22;10869;52.238;10.716;2024-02-21T11:21:56;9.80;99.90
21417;DHT22;10869;52.238;10.716;2024-02-21T11:28:12;10.10;99.90
21417;DHT22;10869;52.238;10.716;2024-02-21T11:33:39;10.30;99.90
21417;DHT22;10869;52.238;10.716;2024-02-21T11:36:08;10.40;99.90
21417;DHT22;10869;52.238;10.716;2024-02-21T11:38:44;10.70;99.90
21417;DHT22;10869;52.238;10.716;2024-02-21T11:54:16;11.30;99.90
21417;DHT22;10869;52.238;10.716;2024-02-21T11:56:53;11.20;99.90
21417;DHT22;10869;52.238;10.716;2024-02-21T11:59:26;11.20;99.90
21417;DHT22;10869;52.238;10.716;2024-02-21T12:01:53;11.10;99.90
21417;DHT22;10869;52.238;10.716;2024-02-21T12:04:20;11.00;99.90
21417;DHT22;10869;52.238;10.716;2024-02-21T12:06:49;11.00;99.90
21417;DHT22;10869;52.238;10.716;2024-02-21T12:12:48;11.00;99.90
21417;DHT22;10869;52.238;10.716;2024-02-21T12:15:23;11.10;99.90
21417;DHT22;10869;52.238;10.716;2024-02-21T12:17:55;11.10;99.90
21417;DHT22;10869;52.238;10.716;2024-02-21T12:20:30;11.20;99.90
21417;DHT22;10869;52.238;10.716;2024-02-21T12:26:03;11.10;99.90
21417;DHT22;10869;52.238;10.716;2024-02-21T12:31:59;11.10;99.90
21417;DHT22;10869;52.238;10.716;2024-02-21T12:34:25;11.00;99.90
21417;DHT22;10869;52.238;10.716;2024-02-21T12:40:14;10.90;99.90
21417;DHT22;10869;52.238;10.716;2024-02-21T12:42:43;10.90;99.90
21417;DHT22;10869;52.238;10.716;2024-02-21T12:45:11;11.00;99.90
21417;DHT22;10869;52.238;10.716;2024-02-21T12:47:37;11.00;99.90
21417;DHT22;10869;52.238;10.716;2024-02-21T12:50:06;11.10;99.90
21417;DHT22;10869;52.238;10.716;2024-02-21T12:52:32;11.10;99.90
21417;DHT22;10869;52.238;10.716;2024-02-21T12:54:58;11.10;99.90
21417;DHT22;10869;52.238;10.716;2024-02-21T12:57:24;11.20;99.90
21417;DHT22;10869;52.238;10.716;2024-02-21T12:59:53;11.20;99.90
21417;DHT22;10869;52.238;10.716;2024-02-21T13:02:38;11.10;99.90
21417;DHT22;10869;52.238;10.716;2024-02-21T14:54:03;9.80;99.90
21417;DHT22;10869;52.238;10.716;2024-02-21T14:59:52;9.80;99.90
21417;DHT22;10869;52.238;10.716;2024-02-21T15:02:22;9.90;99.90
21417;DHT22;10869;52.238;10.716;2024-02-21T15:04:51;9.80;99.90
21417;DHT22;10869;52.238;10.716;2024-02-21T15:07:19;9.80;99.90
21417;DHT22;10869;52.238;10.716;2024-02-21T15:09:45;9.70;99.90
21417;DHT22;10869;52.238;10.716;2024-02-21T15:12:11;9.70;99.90
21417;DHT22;10869;52.238;10.716;2024-02-21T15:14:39;9.70;99.90
21417;DHT22;10869;52.238;10.716;2024-02-21T15:20:27;9.60;99.90
21417;DHT22;10869;52.238;10.716;2024-02-21T15:26:17;9.50;99.90
21417;DHT22;10869;52.238;10.716;2024-02-21T15:32:06;9.40;99.90
21417;DHT22;10869;52.238;10.716;2024-02-21T15:37:58;9.30;99.90
21417;DHT22;10869;52.238;10.716;2024-02-21T15:43:58;9.30;99.90
21417;DHT22;10869;52.238;10.716;2024-02-21T15:49:50;9.20;99.90
21417;DHT22;10869;52.238;10.716;2024-02-21T15:52:20;9.10;99.90
21417;DHT22;10869;52.238;10.716;2024-02-21T16:00:17;9.10;99.90
21417;DHT22;10869;52.238;10.716;2024-02-21T16:11:16;8.90;99.90
21417;DHT22;10869;52.238;10.716;2024-02-21T16:20:17;8.80;99.90
21417;DHT22;10869;52.238;10.716;2024-02-21T16:22:43;8.80;99.90
21417;DHT22;10869;52.238;10.716;2024-02-21T16:25:13;8.70;99.90
21417;DHT22;10869;52.238;10.716;2024-02-21T16:27:43;8.70;99.90
21417;DHT22;10869;52.238;10.716;2024-02-21T16:30:09;8.70;99.90
21417;DHT22;10869;52.238;10.716;2024-02-21T16:32:35;8.70;99.90
21417;DHT22;10869;52.238;10.716;2024-02-21T16:35:04;8.70;99.90
21417;DHT22;10869;52.238;10.716;2024-02-21T16:37:31;8.60;99.90
21417;DHT22;10869;52.238;10.716;2024-02-21T16:39:57;8.60;99.90
21417;DHT22;10869;52.238;10.716;2024-02-21T16:42:22;8.60;99.90
21417;DHT22;10869;52.238;10.716;2024-02-21T16:44:49;8.50;99.90
21417;DHT22;10869;52.238;10.716;2024-02-21T16:47:16;8.50;99.90
21417;DHT22;10869;52.238;10.716;2024-02-21T16:49:42;8.40;99.90
21417;DHT22;10869;52.238;10.716;2024-02-21T16:52:10;8.40;99.90
21417;DHT22;10869;52.238;10.716;2024-02-21T16:54:45;8.40;99.90
21417;DHT22;10869;52.238;10.716;2024-02-21T16:57:11;8.40;99.90
21417;DHT22;10869;52.238;10.716;2024-02-21T16:59:39;8.30;99.90
21417;DHT22;10869;52.238;10.716;2024-02-21T17:02:05;8.40;99.90
21417;DHT22;10869;52.238;10.716;2024-02-21T17:07:53;8.40;99.90
21417;DHT22;10869;52.238;10.716;2024-02-21T17:13:41;8.40;99.90
21417;DHT22;10869;52.238;10.716;2024-02-21T17:26:23;8.10;99.90
21417;DHT22;10869;52.238;10.716;2024-02-21T17:28:52;8.00;99.90
21417;DHT22;10869;52.238;10.716;2024-02-21T17:31:18;7.90;99.90
21417;DHT22;10869;52.238;10.716;2024-02-21T17:37:06;7.80;99.90
21417;DHT22;10869;52.238;10.716;2024-02-21T17:39:32;7.80;99.90
21417;DHT22;10869;52.238;10.716;2024-02-21T17:45:19;7.70;99.90
21417;DHT22;10869;52.238;10.716;2024-02-21T17:47:45;7.70;99.90
21417;DHT22;10869;52.238;10.716;2024-02-21T17:50:12;7.70;99.90
21417;DHT22;10869;52.238;10.716;2024-02-21T17:52:38;7.70;99.90
21417;DHT22;10869;52.238;10.716;2024-02-21T17:55:04;7.70;99.90
21417;DHT22;10869;52.238;10.716;2024-02-21T17:57:45;7.70;99.90
21417;DHT22;10869;52.238;10.716;2024-02-21T18:00:13;7.70;99.90
21417;DHT22;10869;52.238;10.716;2024-02-21T18:02:58;7.60;99.90
21417;DHT22;10869;52.238;10.716;2024-02-21T18:05:39;7.60;99.90
21417;DHT22;10869;52.238;10.716;2024-02-21T18:08:36;7.60;99.90
21417;DHT22;10869;52.238;10.716;2024-02-21T18:11:48;7.60;99.90
21417;DHT22;10869;52.238;10.716;2024-02-21T18:14:52;7.50;99.90
21417;DHT22;10869;52.238;10.716;2024-02-21T18:30:59;7.90;99.90
21417;DHT22;10869;52.238;10.716;2024-02-21T18:33:40;7.90;99.90
21417;DHT22;10869;52.238;10.716;2024-02-21T18:36:33;8.00;99.90
21417;DHT22;10869;52.238;10.716;2024-02-21T18:42:37;8.00;99.90
21417;DHT22;10869;52.238;10.716;2024-02-21T18:51:59;8.00;99.90
21417;DHT22;10869;52.238;10.716;2024-02-21T19:05:18;8.00;99.90
21417;DHT22;10869;52.238;10.716;2024-02-21T19:18:27;8.00;99.90
21417;DHT22;10869;52.238;10.716;2024-02-21T19:24:17;8.00;99.90
21417;DHT22;10869;52.238;10.716;2024-02-21T19:26:43;8.10;99.90
21417;DHT22;10869;52.238;10.716;2024-02-21T19:29:09;8.10;99.90
21417;DHT22;10869;52.238;10.716;2024-02-21T19:34:57;8.20;99.90
21417;DHT22;10869;52.238;10.716;2024-02-21T19:37:22;8.20;99.90
21417;DHT22;10869;52.238;10.716;2024-02-21T19:39:48;8.30;99.90
21417;DHT22;10869;52.238;10.716;2024-02-21T19:42:14;8.30;99.90
21417;DHT22;10869;52.238;10.716;2024-02-21T19:44:40;8.30;99.90
21417;DHT22;10869;52.238;10.716;2024-02-21T19:50:28;8.30;99.90
21417;DHT22;10869;52.238;10.716;2024-02-21T19:52:58;8.30;99.90
21417;DHT22;10869;52.238;10.716;2024-02-21T19:55:25;8.40;99.90
21417;DHT22;10869;52.238;10.716;2024-02-21T19:57:51;8.30;99.90
21417;DHT22;10869;52.238;10.716;2024-02-21T20:00:17;8.40;99.90
21417;DHT22;10869;52.238;10.716;2024-02-21T20:02:43;8.40;99.90
21417;DHT22;10869;52.238;10.716;2024-02-21T20:05:12;8.40;99.90
21417;DHT22;10869;52.238;10.716;2024-02-21T20:07:38;8.40;99.90
21417;DHT22;10869;52.238;10.716;2024-02-21T20:10:04;8.40;99.90
21417;DHT22;10869;52.238;10.716;2024-02-21T20:12:33;8.40;99.90
21417;DHT22;10869;52.238;10.716;2024-02-21T20:14:59;8.40;99.90
21417;DHT22;10869;52.238;10.716;2024-02-21T20:20:52;8.40;99.90
21417;DHT22;10869;52.238;10.716;2024-02-21T20:23:18;8.50;99.90
21417;DHT22;10869;52.238;10.716;2024-02-21T20:31:47;8.50;99.90
21417;DHT22;10869;52.238;10.716;2024-02-21T20:36:57;8.50;99.90
21417;DHT22;10869;52.238;10.716;2024-02-21T20:39:31;8.50;99.90
21417;DHT22;10869;52.238;10.716;2024-02-21T20:42:09;8.50;99.90
21417;DHT22;10869;52.238;10.716;2024-02-21T20:48:10;8.60;99.90
21417;DHT22;10869;52.238;10.716;2024-02-21T20:50:42;8.60;99.90
21417;DHT22;10869;52.238;10.716;2024-02-21T20:56:31;8.60;99.90
21417;DHT22;10869;52.238;10.716;2024-02-21T21:02:28;8.60;99.90
21417;DHT22;10869;52.238;10.716;2024-02-21T21:10:46;8.60;99.90
21417;DHT22;10869;52.238;10.716;2024-02-21T21:13:12;8.70;99.90
21417;DHT22;10869;52.238;10.716;2024-02-21T21:15:37;8.60;99.90
21417;DHT22;10869;52.238;10.716;2024-02-21T21:21:25;8.70;99.90
21417;DHT22;10869;52.238;10.716;2024-02-21T21:24:01;8.70;99.90
21417;DHT22;10869;52.238;10.716;2024-02-21T21:26:32;8.70;99.90
21417;DHT22;10869;52.238;10.716;2024-02-21T21:32:34;8.70;99.90
21417;DHT22;10869;52.238;10.716;2024-02-21T21:35:05;8.70;99.90
21417;DHT22;10869;52.238;10.716;2024-02-21T21:40:53;8.70;99.90
21417;DHT22;10869;52.238;10.716;2024-02-21T21:46:41;8.70;99.90
21417;DHT22;10869;52.238;10.716;2024-02-21T21:49:09;8.60;99.90
21417;DHT22;10869;52.238;10.716;2024-02-21T21:51:35;8.60;99.90
21417;DHT22;10869;52.238;10.716;2024-02-21T21:54:00;8.60;99.90
21417;DHT22;10869;52.238;10.716;2024-02-21T21:56:26;8.60;99.90
21417;DHT22;10869;52.238;10.716;2024-02-21T21:59:03;8.50;99.90
21417;DHT22;10869;52.238;10.716;2024-02-21T22:04:41;8.50;99.90
21417;DHT22;10869;52.238;10.716;2024-02-21T22:10:29;8.40;99.90
21417;DHT22;10869;52.238;10.716;2024-02-21T22:12:55;8.30;99.90
21417;DHT22;10869;52.238;10.716;2024-02-21T22:18:49;8.30;99.90
21417;DHT22;10869;52.238;10.716;2024-02-21T22:21:19;8.20;99.90
21417;DHT22;10869;52.238;10.716;2024-02-21T22:34:09;7.90;99.90
21417;DHT22;10869;52.238;10.716;2024-02-21T22:36:35;7.80;99.90
21417;DHT22;10869;52.238;10.716;2024-02-21T22:39:01;7.80;99.90
21417;DHT22;10869;52.238;10.716;2024-02-21T22:41:27;7.70;99.90
21417;DHT22;10869;52.238;10.716;2024-02-21T22:47:21;7.70;99.90
21417;DHT22;10869;52.238;10.716;2024-02-21T22:49:47;7.70;99.90
21417;DHT22;10869;52.238;10.716;2024-02-21T22:52:13;7.70;99.90
21417;DHT22;10869;52.238;10.716;2024-02-21T22:54:39;7.70;99.90
21417;DHT22;10869;52.238;10.716;2024-02-21T22:57:05;7.70;99.90
21417;DHT22;10869;52.238;10.716;2024-02-21T22:59:32;7.70;99.90
21417;DHT22;10869;52.238;10.716;2024-02-21T23:01:58;7.80;99.90
21417;DHT22;10869;52.238;10.716;2024-02-21T23:04:24;7.80;99.90
21417;DHT22;10869;52.238;10.716;2024-02-21T23:06:50;7.80;99.90